Time;durP1;ratioP1;P1;durP2;ratioP2;P2;SDS_P1;SDS_P2;PMS_P1;PMS_P2;Temp;Humidity;BMP_temperature;BMP_pressure;BME280_temperature;BME280_humidity;BME280_pressure;Samples;Min_cycle;Max_cycle;Signal;HPM_P1;HPM_P2
2022/09/30 00:00:44;;;;;;;;;;;;;;;3.80;55.42;94685.69;5071413;28;19993;-80
2022/09/30 00:03:09;;;;;;;;;;;;;;;3.90;55.86;94696.94;5060030;28;19984;-80
2022/09/30 00:05:35;;;;;;;;;;;;;;;3.94;56.05;94690.38;5081388;28;20008;-81
2022/09/30 00:08:00;;;;;;;;;;;;;;;3.97;54.17;94691.00;5074574;28;20111;-81
2022/09/30 00:10:26;;;;;;;;;;;;;;;3.94;52.18;94689.53;5046751;28;19976;-81
2022/09/30 00:12:51;;;;;;;;;;;;;;;3.92;55.72;94692.31;5057952;28;20481;-81
2022/09/30 00:15:16;;;;;;;;;;;;;;;3.96;51.24;94694.63;5060895;28;20007;-81
2022/09/30 00:17:41;;;;;;;;;;;;;;;4.01;55.07;94697.63;5060927;28;19993;-81
2022/09/30 00:20:07;;;;;;;;;;;;;;;4.00;56.05;94695.97;5068511;28;20294;-81
2022/09/30 00:22:32;;;;;;;;;;;;;;;4.04;55.76;94686.75;5063857;28;20583;-81
2022/09/30 00:24:57;;;;;;;;;;;;;;;4.06;56.45;94692.72;5058244;28;20075;-82
2022/09/30 00:27:23;;;;;;;;;;;;;;;4.09;55.87;94686.28;5065722;28;20057;-81
2022/09/30 00:29:48;;;;;;;;;;;;;;;4.10;53.84;94683.50;5042060;28;20464;-81
2022/09/30 00:32:13;;;;;;;;;;;;;;;4.07;54.94;94691.72;5063366;28;20000;-81
2022/09/30 00:34:38;;;;;;;;;;;;;;;4.08;56.04;94685.44;5070649;28;19973;-81
2022/09/30 00:37:04;;;;;;;;;;;;;;;4.09;56.35;94686.28;5075913;28;19988;-80
2022/09/30 00:39:30;;;;;;;;;;;;;;;4.12;56.47;94686.78;5080678;28;19988;-81
2022/09/30 00:41:59;;;;;;;;;;;;;;;4.16;55.99;94693.41;5061864;28;20035;-80
2022/09/30 00:44:43;;;;;;;;;;;;;;;4.19;55.56;94692.25;5061117;28;20003;-80
2022/09/30 00:47:24;;;;;;;;;;;;;;;4.10;52.45;94690.56;5077284;28;19997;-81
2022/09/30 00:49:49;;;;;;;;;;;;;;;3.91;51.62;94690.69;5058423;28;19976;-81
2022/09/30 00:52:14;;;;;;;;;;;;;;;3.90;53.91;94688.19;5074712;28;20057;-80
2022/09/30 00:54:40;;;;;;;;;;;;;;;3.61;46.07;94684.13;5065438;28;20053;-80
2022/09/30 00:57:05;;;;;;;;;;;;;;;3.63;54.35;94696.16;5066383;28;19981;-80
2022/09/30 00:59:36;;;;;;;;;;;;;;;3.66;55.75;94693.22;5055339;28;19991;-80
2022/09/30 01:02:02;;;;;;;;;;;;;;;3.60;49.73;94688.56;5059123;28;20022;-81
2022/09/30 01:04:28;;;;;;;;;;;;;;;3.42;50.14;94692.06;5060553;28;19996;-81
2022/09/30 01:06:53;;;;;;;;;;;;;;;3.42;54.53;94694.72;5085755;28;19978;-80
2022/09/30 01:09:18;;;;;;;;;;;;;;;3.49;56.05;94700.19;5061861;28;19965;-81
2022/09/30 01:11:43;;;;;;;;;;;;;;;3.53;55.01;94693.63;5057058;28;19972;-80
2022/09/30 01:14:22;;;;;;;;;;;;;;;3.58;56.42;94703.72;5050668;28;19959;-80
2022/09/30 01:16:57;;;;;;;;;;;;;;;3.65;56.55;94704.75;5062412;28;20001;-80
2022/09/30 01:19:28;;;;;;;;;;;;;;;3.64;55.08;94694.34;5048725;28;20010;-81
2022/09/30 01:21:59;;;;;;;;;;;;;;;3.60;53.87;94699.09;5060613;28;20053;-81
2022/09/30 01:24:34;;;;;;;;;;;;;;;3.52;49.48;94693.78;5070523;28;19991;-80
2022/09/30 01:26:59;;;;;;;;;;;;;;;3.49;51.71;94699.38;5076068;28;19983;-80
2022/09/30 01:29:38;;;;;;;;;;;;;;;3.40;54.79;94706.34;5064540;28;19969;-80
2022/09/30 01:32:06;;;;;;;;;;;;;;;3.43;56.04;94706.03;5060269;28;20024;-80
2022/09/30 01:34:45;;;;;;;;;;;;;;;3.48;57.57;94711.72;5065349;28;19977;-80
2022/09/30 01:37:22;;;;;;;;;;;;;;;3.51;56.45;94708.75;5056698;28;20031;-80
2022/09/30 01:39:50;;;;;;;;;;;;;;;3.46;54.46;94708.41;5049697;28;19969;-80
2022/09/30 01:42:27;;;;;;;;;;;;;;;3.37;53.59;94714.56;5081690;28;20011;-80
2022/09/30 01:45:08;;;;;;;;;;;;;;;3.16;48.02;94703.41;5073256;28;20002;-81
2022/09/30 01:47:35;;;;;;;;;;;;;;;3.23;54.07;94706.25;5063751;28;19949;-80
2022/09/30 01:50:04;;;;;;;;;;;;;;;3.24;50.73;94701.81;5059245;28;19984;-81
2022/09/30 01:52:38;;;;;;;;;;;;;;;3.13;48.17;94692.41;5079195;28;19964;-80
2022/09/30 01:55:15;;;;;;;;;;;;;;;2.94;48.00;94704.75;5071821;28;19947;-80
2022/09/30 01:57:43;;;;;;;;;;;;;;;2.75;51.96;94700.47;5059171;28;19953;-80
2022/09/30 02:00:09;;;;;;;;;;;;;;;2.83;56.26;94707.59;5056376;28;19960;-80
2022/09/30 02:02:47;;;;;;;;;;;;;;;2.91;54.04;94711.13;5056574;28;19956;-80
2022/09/30 02:05:16;;;;;;;;;;;;;;;3.02;56.38;94709.22;5079875;28;19921;-80
2022/09/30 02:07:45;;;;;;;;;;;;;;;3.13;57.50;94703.72;5060899;28;19951;-80
2022/09/30 02:10:31;;;;;;;;;;;;;;;3.22;57.97;94701.97;5065572;28;19925;-80
2022/09/30 02:13:02;;;;;;;;;;;;;;;3.25;53.43;94708.72;5071591;28;19955;-80
2022/09/30 02:15:29;;;;;;;;;;;;;;;3.12;51.53;94704.72;5045457;28;19941;-80
2022/09/30 02:17:57;;;;;;;;;;;;;;;3.13;56.94;94718.69;5055222;28;19967;-80
2022/09/30 02:20:26;;;;;;;;;;;;;;;3.19;56.23;94715.44;5037588;28;19928;-80
2022/09/30 02:22:55;;;;;;;;;;;;;;;3.24;56.69;94715.81;5056343;28;19924;-80
2022/09/30 02:25:22;;;;;;;;;;;;;;;3.31;56.87;94726.53;5081173;28;20001;-80
2022/09/30 02:27:49;;;;;;;;;;;;;;;3.36;56.14;94732.16;5061640;28;19923;-80
2022/09/30 02:30:14;;;;;;;;;;;;;;;3.40;55.18;94724.75;5065212;28;19953;-80
2022/09/30 02:32:42;;;;;;;;;;;;;;;3.35;56.07;94730.50;5063057;28;19916;-80
2022/09/30 02:35:27;;;;;;;;;;;;;;;3.32;56.17;94730.81;5081113;28;19928;-80
2022/09/30 02:37:54;;;;;;;;;;;;;;;3.21;51.88;94726.63;5079519;28;19925;-80
2022/09/30 02:40:24;;;;;;;;;;;;;;;3.24;57.47;94721.06;5060310;28;20381;-80
2022/09/30 02:42:49;;;;;;;;;;;;;;;3.26;55.03;94723.53;5059953;28;20170;-80
2022/09/30 02:45:16;;;;;;;;;;;;;;;3.26;54.63;94726.16;5077623;28;19923;-80
2022/09/30 02:47:55;;;;;;;;;;;;;;;3.29;52.83;94724.06;5062140;28;19952;-80
2022/09/30 02:50:26;;;;;;;;;;;;;;;3.21;50.77;94717.91;5059573;28;20019;-80
2022/09/30 02:53:18;;;;;;;;;;;;;;;3.14;55.06;94715.06;5080156;28;19924;-80
2022/09/30 02:55:44;;;;;;;;;;;;;;;3.14;56.57;94715.88;5079877;28;20019;-80
2022/09/30 02:58:12;;;;;;;;;;;;;;;3.20;56.59;94724.97;5076294;28;19920;-80
2022/09/30 03:00:38;;;;;;;;;;;;;;;3.25;55.29;94721.88;5079082;28;19951;-80
2022/09/30 03:03:09;;;;;;;;;;;;;;;3.28;57.46;94721.59;5075781;28;20375;-80
2022/09/30 03:05:34;;;;;;;;;;;;;;;3.30;57.27;94725.72;5068361;28;19956;-80
2022/09/30 03:08:00;;;;;;;;;;;;;;;3.34;56.08;94730.66;5080959;28;19928;-80
2022/09/30 03:10:25;;;;;;;;;;;;;;;3.37;57.89;94725.91;5079514;28;19909;-80
2022/09/30 03:13:06;;;;;;;;;;;;;;;3.37;57.10;94725.91;5062626;28;19912;-80
2022/09/30 03:15:36;;;;;;;;;;;;;;;3.34;56.93;94728.88;5062475;28;19931;-80
2022/09/30 03:18:21;;;;;;;;;;;;;;;3.32;55.19;94729.97;5064802;28;19912;-80
2022/09/30 03:21:02;;;;;;;;;;;;;;;3.14;48.43;94731.66;5070550;28;19976;-80
2022/09/30 03:23:39;;;;;;;;;;;;;;;3.09;53.19;94738.41;5074393;28;19925;-80
2022/09/30 03:26:12;;;;;;;;;;;;;;;3.02;52.34;94738.16;5072729;28;19947;-80
2022/09/30 03:28:43;;;;;;;;;;;;;;;3.01;53.48;94747.03;5052236;28;19932;-80
2022/09/30 03:31:15;;;;;;;;;;;;;;;2.98;56.61;94755.22;5081828;28;19908;-80
2022/09/30 03:33:48;;;;;;;;;;;;;;;2.83;52.04;94747.03;5071675;28;19905;-80
2022/09/30 03:36:25;;;;;;;;;;;;;;;2.81;56.88;94760.34;5081804;28;19920;-80
2022/09/30 03:39:05;;;;;;;;;;;;;;;2.87;58.13;94756.28;5075755;28;19954;-80
2022/09/30 03:41:33;;;;;;;;;;;;;;;2.95;57.71;94755.50;5065656;28;20135;-80
2022/09/30 03:44:09;;;;;;;;;;;;;;;3.02;57.80;94760.03;5058017;28;20106;-79
2022/09/30 03:46:36;;;;;;;;;;;;;;;3.06;58.63;94760.53;5045946;28;19935;-79
2022/09/30 03:49:03;;;;;;;;;;;;;;;3.09;57.34;94770.75;5058161;28;19913;-79
2022/09/30 03:51:29;;;;;;;;;;;;;;;3.08;55.57;94766.50;5057611;28;19951;-79
2022/09/30 03:53:54;;;;;;;;;;;;;;;3.06;53.33;94776.31;5058290;28;19982;-80
2022/09/30 03:56:27;;;;;;;;;;;;;;;2.98;56.37;94779.72;5057186;28;19925;-80
2022/09/30 03:58:52;;;;;;;;;;;;;;;2.91;53.33;94770.78;5079283;28;19948;-80
2022/09/30 04:01:20;;;;;;;;;;;;;;;2.85;55.66;94776.63;5066669;28;19922;-80
2022/09/30 04:03:45;;;;;;;;;;;;;;;2.84;57.00;94786.34;5079702;28;19920;-80
2022/09/30 04:06:11;;;;;;;;;;;;;;;2.87;58.08;94791.31;5062101;28;19924;-80
2022/09/30 04:08:36;;;;;;;;;;;;;;;2.93;58.31;94791.66;5075746;28;19912;-79
2022/09/30 04:11:02;;;;;;;;;;;;;;;2.93;55.88;94795.13;5077893;28;19921;-80
2022/09/30 04:13:27;;;;;;;;;;;;;;;2.81;52.52;94794.50;5081049;28;19913;-80
2022/09/30 04:15:53;;;;;;;;;;;;;;;2.73;54.13;94803.13;5081833;28;19935;-80
2022/09/30 04:18:18;;;;;;;;;;;;;;;2.39;47.26;94812.47;5063384;28;19932;-79
2022/09/30 04:20:43;;;;;;;;;;;;;;;2.39;51.03;94809.03;5076454;28;19925;-80
2022/09/30 04:23:09;;;;;;;;;;;;;;;2.19;48.87;94813.53;5083043;28;19931;-79
2022/09/30 04:25:34;;;;;;;;;;;;;;;2.23;55.88;94815.75;5072700;28;19939;-80
2022/09/30 04:27:59;;;;;;;;;;;;;;;2.32;57.62;94806.16;5048718;28;19978;-80
2022/09/30 04:30:24;;;;;;;;;;;;;;;2.45;57.49;94805.81;5039851;28;20109;-80
2022/09/30 04:32:50;;;;;;;;;;;;;;;2.51;52.37;94801.75;5052966;28;19974;-80
2022/09/30 04:35:15;;;;;;;;;;;;;;;2.46;52.11;94804.00;5069048;28;19927;-80
2022/09/30 04:37:43;;;;;;;;;;;;;;;2.43;53.77;94801.66;5071444;28;20104;-80
2022/09/30 04:40:09;;;;;;;;;;;;;;;2.43;56.49;94809.56;5069866;28;19927;-79
2022/09/30 04:42:34;;;;;;;;;;;;;;;2.51;57.54;94812.28;5084750;28;19948;-79
2022/09/30 04:45:00;;;;;;;;;;;;;;;2.58;57.45;94812.53;5082339;28;19968;-79
2022/09/30 04:47:25;;;;;;;;;;;;;;;2.59;55.97;94806.28;5076106;28;19978;-79
2022/09/30 04:49:50;;;;;;;;;;;;;;;2.47;51.68;94806.50;5045704;28;19951;-79
2022/09/30 04:52:16;;;;;;;;;;;;;;;2.52;57.91;94806.88;5038293;28;19920;-79
2022/09/30 04:54:41;;;;;;;;;;;;;;;2.57;56.41;94811.69;5057839;28;19916;-79
2022/09/30 04:57:06;;;;;;;;;;;;;;;2.48;55.89;94812.56;5067320;28;19920;-79
2022/09/30 04:59:32;;;;;;;;;;;;;;;2.46;57.18;94817.97;5068806;28;19916;-78
2022/09/30 05:01:57;;;;;;;;;;;;;;;2.52;56.92;94822.63;5069694;28;19942;-79
2022/09/30 05:04:23;;;;;;;;;;;;;;;2.56;58.47;94823.19;5049886;28;20241;-78
2022/09/30 05:06:48;;;;;;;;;;;;;;;2.61;59.61;94830.59;5064877;28;20016;-79
2022/09/30 05:09:13;;;;;;;;;;;;;;;2.65;58.65;94835.44;5067822;28;19920;-78
2022/09/30 05:11:41;;;;;;;;;;;;;;;2.73;59.39;94836.50;5073615;28;19950;-78
2022/09/30 05:14:09;;;;;;;;;;;;;;;2.70;54.93;94840.25;5071622;28;19924;-79
2022/09/30 05:16:34;;;;;;;;;;;;;;;2.49;50.64;94837.88;5044522;28;19917;-78
2022/09/30 05:18:59;;;;;;;;;;;;;;;2.36;51.43;94851.34;5036896;28;19940;-79
2022/09/30 05:21:25;;;;;;;;;;;;;;;2.28;55.33;94849.44;5051249;28;19925;-79
2022/09/30 05:23:52;;;;;;;;;;;;;;;2.04;47.45;94853.41;5045535;28;19960;-79
2022/09/30 05:26:17;;;;;;;;;;;;;;;1.99;50.39;94851.22;5033220;28;19940;-78
2022/09/30 05:28:42;;;;;;;;;;;;;;;2.01;54.19;94848.47;5041535;28;19932;-79
2022/09/30 05:31:08;;;;;;;;;;;;;;;2.00;52.91;94845.00;5046954;28;20432;-79
2022/09/30 05:33:34;;;;;;;;;;;;;;;1.91;48.33;94847.66;5041892;28;19917;-79
2022/09/30 05:36:03;;;;;;;;;;;;;;;2.00;55.83;94855.50;5042396;28;19918;-78
2022/09/30 05:38:28;;;;;;;;;;;;;;;2.14;56.53;94859.47;5053751;28;19944;-78
2022/09/30 05:40:54;;;;;;;;;;;;;;;2.19;56.52;94864.28;5055826;28;19948;-78
2022/09/30 05:43:19;;;;;;;;;;;;;;;2.14;50.93;94866.50;5051978;28;19929;-79
2022/09/30 05:45:52;;;;;;;;;;;;;;;2.07;53.15;94865.41;5046015;28;19925;-79
2022/09/30 05:48:17;;;;;;;;;;;;;;;2.22;56.86;94869.22;5036663;28;19916;-79
2022/09/30 05:50:42;;;;;;;;;;;;;;;2.35;52.62;94878.59;5039133;28;20258;-79
2022/09/30 05:53:07;;;;;;;;;;;;;;;2.43;55.16;94875.25;5041334;28;19917;-79
2022/09/30 05:55:33;;;;;;;;;;;;;;;2.42;54.20;94876.22;5035871;28;20301;-79
2022/09/30 05:57:58;;;;;;;;;;;;;;;2.47;53.17;94881.84;5042126;28;19995;-79
2022/09/30 06:00:23;;;;;;;;;;;;;;;2.40;49.27;94889.50;5046386;28;19924;-79
2022/09/30 06:02:51;;;;;;;;;;;;;;;2.43;52.53;94883.13;5042318;28;19921;-79
2022/09/30 06:05:17;;;;;;;;;;;;;;;2.59;56.16;94890.38;5047208;28;20416;-79
2022/09/30 06:07:42;;;;;;;;;;;;;;;2.75;54.02;94889.75;5041152;28;20016;-79
2022/09/30 06:10:11;;;;;;;;;;;;;;;2.76;50.73;94901.94;5039826;28;20388;-79
2022/09/30 06:12:37;;;;;;;;;;;;;;;2.84;52.82;94899.41;5038736;28;19925;-79
2022/09/30 06:15:02;;;;;;;;;;;;;;;2.96;56.43;94896.56;5035098;28;19921;-79
2022/09/30 06:17:28;;;;;;;;;;;;;;;3.06;56.07;94899.94;5027701;28;20409;-80
2022/09/30 06:19:53;;;;;;;;;;;;;;;3.18;53.64;94897.94;5042757;28;19935;-79
2022/09/30 06:22:18;;;;;;;;;;;;;;;3.28;50.98;94890.81;5024323;28;20433;-79
2022/09/30 06:24:44;;;;;;;;;;;;;;;3.47;55.22;94896.91;5052995;28;20473;-80
2022/09/30 06:27:09;;;;;;;;;;;;;;;3.63;55.98;94898.84;5040109;28;19940;-79
2022/09/30 06:29:35;;;;;;;;;;;;;;;3.79;54.98;94897.34;5032987;28;19938;-79
2022/09/30 06:32:01;;;;;;;;;;;;;;;3.91;53.38;94898.72;5034654;28;20412;-79
2022/09/30 06:34:26;;;;;;;;;;;;;;;4.00;55.07;94910.16;5040663;28;19913;-79
2022/09/30 06:36:52;;;;;;;;;;;;;;;4.17;51.01;94918.16;5050550;28;19920;-79
2022/09/30 06:39:18;;;;;;;;;;;;;;;4.32;55.54;94921.88;5035028;28;19921;-65
2022/09/30 06:41:43;;;;;;;;;;;;;;;4.50;55.74;94918.38;5053286;28;19948;-65
2022/09/30 06:44:08;;;;;;;;;;;;;;;4.75;55.92;94921.09;5049754;28;19928;-65
2022/09/30 06:46:34;;;;;;;;;;;;;;;4.95;55.80;94919.06;5050161;28;20266;-65
2022/09/30 06:48:59;;;;;;;;;;;;;;;5.12;54.94;94923.56;5052264;28;19924;-65
2022/09/30 06:51:25;;;;;;;;;;;;;;;5.31;54.99;94930.41;5036863;28;19932;-65
2022/09/30 06:53:51;;;;;;;;;;;;;;;5.50;54.92;94925.81;5059615;28;20011;-65
2022/09/30 06:56:17;;;;;;;;;;;;;;;5.71;54.32;94928.78;5050606;28;19920;-65
2022/09/30 06:58:44;;;;;;;;;;;;;;;5.89;54.00;94930.47;5050711;28;20126;-65
2022/09/30 07:01:13;;;;;;;;;;;;;;;6.06;53.76;94928.59;5052353;28;20206;-65
2022/09/30 07:03:38;;;;;;;;;;;;;;;6.25;53.60;94934.53;5053810;28;19924;-66
2022/09/30 07:06:04;;;;;;;;;;;;;;;6.38;53.37;94934.88;5054029;28;19936;-65
2022/09/30 07:08:30;;;;;;;;;;;;;;;6.55;52.79;94932.19;5053793;28;20638;-65
2022/09/30 07:11:03;;;;;;;;;;;;;;;6.72;52.58;94924.22;5048412;28;19913;-65
2022/09/30 07:13:28;;;;;;;;;;;;;;;6.92;52.00;94926.44;5051392;28;19913;-65
2022/09/30 07:15:55;;;;;;;;;;;;;;;7.08;51.58;94937.00;5061506;28;20023;-65
2022/09/30 07:18:21;;;;;;;;;;;;;;;7.24;51.44;94938.72;5052189;28;19928;-65
2022/09/30 07:20:52;;;;;;;;;;;;;;;7.48;52.46;94936.91;5051827;28;19924;-65
2022/09/30 07:23:18;;;;;;;;;;;;;;;7.67;51.33;94937.47;5051586;28;20374;-66
2022/09/30 07:25:49;;;;;;;;;;;;;;;7.88;50.47;94934.19;5039183;28;19924;-66
2022/09/30 07:28:14;;;;;;;;;;;;;;;8.00;48.86;94934.63;5056341;28;19925;-66
2022/09/30 07:30:42;;;;;;;;;;;;;;;8.24;49.44;94937.22;5048482;28;20220;-66
2022/09/30 07:33:07;;;;;;;;;;;;;;;8.47;46.39;94939.00;5056105;28;19943;-66
2022/09/30 07:35:32;;;;;;;;;;;;;;;8.67;48.77;94941.94;5048633;28;19928;-66
2022/09/30 07:37:59;;;;;;;;;;;;;;;8.76;49.15;94946.16;5053290;28;20015;-66
2022/09/30 07:40:30;;;;;;;;;;;;;;;8.93;47.90;94949.44;5058616;28;19954;-66
2022/09/30 07:42:55;;;;;;;;;;;;;;;9.11;48.29;94944.78;5050022;28;20315;-65
2022/09/30 07:45:20;;;;;;;;;;;;;;;9.21;44.96;94947.97;5054174;28;20219;-65
2022/09/30 07:47:46;;;;;;;;;;;;;;;9.48;49.52;94963.41;5053518;28;20451;-66
2022/09/30 07:50:14;;;;;;;;;;;;;;;9.70;48.80;94957.09;5049946;28;20368;-66
2022/09/30 07:52:39;;;;;;;;;;;;;;;9.89;46.20;94957.47;5051102;28;20040;-66
2022/09/30 07:55:04;;;;;;;;;;;;;;;9.77;43.52;94954.53;5053646;28;20017;-66
2022/09/30 07:57:30;;;;;;;;;;;;;;;9.98;41.47;94955.53;5056497;28;19973;-66
2022/09/30 07:59:55;;;;;;;;;;;;;;;9.84;42.90;94955.41;5048972;28;19989;-66
2022/09/30 08:02:20;;;;;;;;;;;;;;;10.20;40.48;94958.22;5050407;28;19989;-66
2022/09/30 08:04:46;;;;;;;;;;;;;;;10.30;43.18;94966.66;5051851;28;19997;-66
2022/09/30 08:07:11;;;;;;;;;;;;;;;10.03;39.40;94969.06;5033757;28;19993;-67
2022/09/30 08:09:37;;;;;;;;;;;;;;;10.20;42.02;94974.97;5029737;28;20110;-67
2022/09/30 08:12:03;;;;;;;;;;;;;;;9.78;40.75;94974.75;5048394;28;20193;-68
2022/09/30 08:14:28;;;;;;;;;;;;;;;9.96;39.84;94978.81;5048548;28;20011;-67
2022/09/30 08:16:55;;;;;;;;;;;;;;;9.76;40.43;94973.31;5053041;28;20069;-66
2022/09/30 08:19:21;;;;;;;;;;;;;;;9.92;42.11;94980.19;5052088;28;20520;-66
2022/09/30 08:21:46;;;;;;;;;;;;;;;9.63;40.25;94981.97;5049062;28;20080;-66
2022/09/30 08:24:12;;;;;;;;;;;;;;;9.98;40.79;94982.94;5052419;28;20360;-66
2022/09/30 08:26:37;;;;;;;;;;;;;;;9.44;42.37;94981.53;5052605;28;19969;-66
2022/09/30 08:29:02;;;;;;;;;;;;;;;9.00;45.08;94992.03;5051774;28;19992;-66
2022/09/30 08:31:28;;;;;;;;;;;;;;;10.35;42.71;94992.72;5053071;28;19988;-66
2022/09/30 08:33:53;;;;;;;;;;;;;;;10.39;40.68;94990.47;5052012;28;19973;-66
2022/09/30 08:36:20;;;;;;;;;;;;;;;9.59;42.49;94990.31;5052254;28;20000;-66
2022/09/30 08:38:45;;;;;;;;;;;;;;;10.65;41.75;94984.56;5047856;28;20069;-65
2022/09/30 08:41:29;;;;;;;;;;;;;;;8.11;46.39;95002.28;5050374;28;20553;-67
2022/09/30 08:44:03;;;;;;;;;;;;;;;9.66;44.00;94995.69;5051442;28;20059;-65
2022/09/30 08:46:35;;;;;;;;;;;;;;;9.24;41.98;95002.56;5044714;28;19971;-66
2022/09/30 08:49:12;;;;;;;;;;;;;;;10.45;40.06;95001.19;5044851;28;20047;-66
2022/09/30 08:51:42;;;;;;;;;;;;;;;10.77;39.53;95003.47;5054839;28;20464;-66
2022/09/30 08:54:09;;;;;;;;;;;;;;;10.42;40.55;95008.72;5045613;28;20330;-66
2022/09/30 08:56:35;;;;;;;;;;;;;;;8.67;42.71;95009.09;5045142;28;19986;-66
2022/09/30 08:59:13;;;;;;;;;;;;;;;11.15;38.79;95014.78;5026757;28;19976;-66
2022/09/30 09:01:40;;;;;;;;;;;;;;;11.48;38.77;95003.47;5032322;28;19990;-66
2022/09/30 09:04:05;;;;;;;;;;;;;;;11.03;37.63;95017.13;5046806;28;20122;-66
2022/09/30 09:06:30;;;;;;;;;;;;;;;11.60;38.75;95006.38;5047170;28;20118;-66
2022/09/30 09:09:19;;;;;;;;;;;;;;;11.29;38.30;95011.16;5051478;28;20372;-66
2022/09/30 09:11:44;;;;;;;;;;;;;;;10.91;38.42;95025.66;5016296;28;19993;-66
2022/09/30 09:14:22;;;;;;;;;;;;;;;10.30;38.83;95025.19;5051337;28;19972;-66
2022/09/30 09:16:50;;;;;;;;;;;;;;;10.69;39.14;95020.41;5037271;28;20032;-66
2022/09/30 09:19:16;;;;;;;;;;;;;;;11.74;37.79;95018.75;5034159;28;20047;-66
2022/09/30 09:21:44;;;;;;;;;;;;;;;11.12;36.72;95016.81;5046257;28;20033;-66
2022/09/30 09:24:33;;;;;;;;;;;;;;;10.43;40.41;95021.00;5051329;28;20473;-65
2022/09/30 09:26:58;;;;;;;;;;;;;;;12.25;34.94;95013.16;5038409;28;19969;-66
2022/09/30 09:29:36;;;;;;;;;;;;;;;11.55;37.17;95006.97;5033689;28;20060;-66
2022/09/30 09:32:02;;;;;;;;;;;;;;;12.56;36.13;95005.56;5047413;28;19989;-66
2022/09/30 09:34:27;;;;;;;;;;;;;;;13.13;35.58;95008.59;5038665;28;19965;-66
2022/09/30 09:37:03;;;;;;;;;;;;;;;13.33;35.10;94996.22;5032167;28;20135;-66
2022/09/30 09:39:34;;;;;;;;;;;;;;;13.66;34.26;94996.09;5036282;28;20080;-66
2022/09/30 09:42:02;;;;;;;;;;;;;;;14.01;33.44;95002.91;5036578;28;20646;-66
2022/09/30 09:44:27;;;;;;;;;;;;;;;13.17;33.48;95003.66;5053865;28;20020;-66
2022/09/30 09:47:03;;;;;;;;;;;;;;;14.00;31.25;95001.28;5051147;28;19973;-65
2022/09/30 09:49:29;;;;;;;;;;;;;;;13.09;32.32;94996.69;5048416;28;19976;-75
2022/09/30 09:52:10;;;;;;;;;;;;;;;13.23;32.63;95008.19;5031945;28;19991;-73
2022/09/30 09:54:43;;;;;;;;;;;;;;;13.16;34.12;95004.72;5030184;28;21907;-74
2022/09/30 09:57:09;;;;;;;;;;;;;;;13.03;32.35;95002.88;5050576;28;20569;-74
2022/09/30 09:59:34;;;;;;;;;;;;;;;13.73;31.24;95001.41;5053399;28;19985;-65
2022/09/30 10:02:00;;;;;;;;;;;;;;;11.75;35.66;95000.88;5053307;28;20024;-65
2022/09/30 10:04:29;;;;;;;;;;;;;;;12.17;33.54;94994.66;5045729;28;19989;-65
2022/09/30 10:06:54;;;;;;;;;;;;;;;11.42;35.25;94994.41;5048364;28;19981;-66
2022/09/30 10:09:26;;;;;;;;;;;;;;;13.27;34.78;94996.03;5052662;28;19973;-65
2022/09/30 10:12:11;;;;;;;;;;;;;;;13.85;33.26;94993.53;5051483;28;19989;-66
2022/09/30 10:14:36;;;;;;;;;;;;;;;;;;5036514;28;20454;-66
2022/09/30 10:17:02;;;;;;;;;;;;;;;15.37;31.33;94991.94;5047402;28;20428;-66
2022/09/30 10:19:28;;;;;;;;;;;;;;;14.93;29.31;95000.00;5032414;28;20041;-65
2022/09/30 10:22:15;;;;;;;;;;;;;;;14.64;30.51;95004.97;5054065;28;20091;-80
2022/09/30 10:24:41;;;;;;;;;;;;;;;15.84;28.79;95002.09;5044089;28;19993;-80
2022/09/30 10:27:24;;;;;;;;;;;;;;;14.43;29.35;95009.66;5054575;28;19996;-80
2022/09/30 10:29:50;;;;;;;;;;;;;;;15.50;28.72;95012.38;5061036;28;20417;-80
2022/09/30 10:32:15;;;;;;;;;;;;;;;15.32;29.61;95015.88;5055964;28;20043;-81
2022/09/30 10:34:41;;;;;;;;;;;;;;;14.35;31.55;95010.75;5035877;28;19981;-81
2022/09/30 10:37:16;;;;;;;;;;;;;;;14.47;31.38;95026.94;5024675;28;19996;-80
2022/09/30 10:39:41;;;;;;;;;;;;;;;13.42;31.49;95024.34;5021601;28;19997;-80
2022/09/30 10:42:08;;;;;;;;;;;;;;;13.26;32.44;95023.78;5040906;28;19992;-80
2022/09/30 10:44:51;;;;;;;;;;;;;;;12.95;33.71;95027.13;5039310;28;20361;-81
2022/09/30 10:47:17;;;;;;;;;;;;;;;12.31;33.86;95025.69;5042859;28;19988;-80
2022/09/30 10:49:47;;;;;;;;;;;;;;;12.75;32.95;95030.63;5065886;28;19981;-80
2022/09/30 10:52:31;;;;;;;;;;;;;;;12.50;33.33;95026.72;5062096;28;19988;-80
2022/09/30 10:54:57;;;;;;;;;;;;;;;12.26;33.23;95018.28;5046850;28;20495;-81
2022/09/30 10:57:33;;;;;;;;;;;;;;;12.16;33.32;95028.50;5045956;28;19973;-81
2022/09/30 10:59:59;;;;;;;;;;;;;;;12.00;33.80;95032.38;5033352;28;20570;-82
2022/09/30 11:02:29;;;;;;;;;;;;;;;12.39;32.78;95030.81;5041220;28;20274;-81
2022/09/30 11:05:04;;;;;;;;;;;;;;;12.65;33.77;95031.84;5071865;28;20006;-81
2022/09/30 11:07:34;;;;;;;;;;;;;;;11.85;33.92;95028.00;5062018;28;20042;-79
2022/09/30 11:10:17;;;;;;;;;;;;;;;12.50;33.35;95031.22;5043723;28;20508;-80
2022/09/30 11:12:48;;;;;;;;;;;;;;;12.30;31.94;95021.34;5067539;28;19999;-79
2022/09/30 11:15:16;;;;;;;;;;;;;;;13.11;31.31;95026.69;5040360;28;20417;-80
2022/09/30 11:18:00;;;;;;;;;;;;;;;12.96;32.54;95026.06;5051657;28;19993;-79
2022/09/30 11:20:31;;;;;;;;;;;;;;;12.76;31.20;95024.25;5062009;28;20011;-80
2022/09/30 11:23:02;;;;;;;;;;;;;;;12.97;31.35;95019.69;5036962;28;19992;-80
2022/09/30 11:25:27;;;;;;;;;;;;;;;12.11;32.69;95026.44;5048300;28;19980;-75
2022/09/30 11:28:05;;;;;;;;;;;;;;;13.00;32.09;95019.31;5036038;28;19985;-75
2022/09/30 11:30:37;;;;;;;;;;;;;;;12.37;33.81;95016.00;5033455;28;20589;-75
2022/09/30 11:33:02;;;;;;;;;;;;;;;13.09;30.84;95009.25;5035109;28;20015;-76
2022/09/30 11:35:46;;;;;;;;;;;;;;;12.27;31.98;95022.59;5053225;28;19995;-75
2022/09/30 11:38:24;;;;;;;;;;;;;;;13.04;29.73;95020.53;5054321;28;20338;-76
2022/09/30 11:40:49;;;;;;;;;;;;;;;13.37;29.27;95018.81;5055470;28;20290;-75
2022/09/30 11:43:33;;;;;;;;;;;;;;;11.99;31.29;95015.53;5035684;28;20555;-75
2022/09/30 11:46:16;;;;;;;;;;;;;;;12.09;32.35;95025.84;5040091;28;20054;-76
2022/09/30 11:48:42;;;;;;;;;;;;;;;12.86;31.86;95013.16;5048143;28;20087;-76
2022/09/30 11:51:37;;;;;;;;;;;;;;;12.85;30.60;95009.63;5060502;28;20396;-81
2022/09/30 11:54:21;;;;;;;;;;;;;;;12.91;29.77;95013.34;5044303;28;20498;-81
2022/09/30 11:57:05;;;;;;;;;;;;;;;12.71;30.68;95022.19;5060244;28;20034;-80
2022/09/30 11:59:48;;;;;;;;;;;;;;;12.59;31.04;95016.66;5056654;28;20330;-80
2022/09/30 12:02:25;;;;;;;;;;;;;;;12.56;30.63;95018.91;5031215;28;20203;-81
2022/09/30 12:04:50;;;;;;;;;;;;;;;12.88;30.39;95021.75;5044224;28;19999;-80
2022/09/30 12:07:16;;;;;;;;;;;;;;;13.69;28.70;95013.56;5044870;28;19989;-79
2022/09/30 12:09:49;;;;;;;;;;;;;;;14.34;27.78;95009.94;5054415;28;20172;-79
2022/09/30 12:12:15;;;;;;;;;;;;;;;13.93;29.49;95012.03;5031799;28;20074;-80
2022/09/30 12:14:41;;;;;;;;;;;;;;;13.15;30.48;95025.25;5018047;28;19984;-80
2022/09/30 12:17:11;;;;;;;;;;;;;;;14.07;28.52;95015.44;5017292;28;20058;-79
2022/09/30 12:19:40;;;;;;;;;;;;;;;13.78;28.73;95016.81;5035523;28;20385;-81
2022/09/30 12:22:08;;;;;;;;;;;;;;;13.36;30.35;95020.66;5056155;28;19989;-81
2022/09/30 12:24:35;;;;;;;;;;;;;;;13.72;29.42;95021.16;5062221;28;20017;-81
2022/09/30 12:27:00;;;;;;;;;;;;;;;13.39;30.52;95009.56;5036213;28;19961;-68
2022/09/30 12:30:24;;;;;;;;;;;;;;;13.52;30.33;95024.75;5037386;28;20011;-69
2022/09/30 12:32:46;;;;;;;;;;;;;;;13.49;29.92;95025.16;5022442;28;20510;-69
2022/09/30 12:35:18;;;;;;;;;;;;;;;13.87;29.83;95017.41;5037258;28;19995;-68
2022/09/30 12:37:56;;;;;;;;;;;;;;;14.38;28.38;95021.00;5050705;28;20038;-69
2022/09/30 12:40:42;;;;;;;;;;;;;;;14.16;29.22;95016.03;5054315;28;20044;-69
2022/09/30 12:43:11;;;;;;;;;;;;;;;16.00;27.61;95011.41;5030891;28;20450;-69
2022/09/30 12:45:56;;;;;;;;;;;;;;;17.88;24.81;95010.34;5030046;28;20080;-68
2022/09/30 12:48:23;;;;;;;;;;;;;;;18.59;21.17;95009.19;5046202;28;20501;-69
2022/09/30 12:50:51;;;;;;;;;;;;;;;19.33;21.64;95022.72;5034877;28;20017;-69
2022/09/30 12:53:17;;;;;;;;;;;;;;;19.43;21.53;95022.03;5031105;28;19964;-69
2022/09/30 12:55:42;;;;;;;;;;;;;;;18.43;23.09;95018.88;5052362;28;20001;-69
2022/09/30 12:58:19;;;;;;;;;;;;;;;18.22;23.63;95021.19;5050598;28;19981;-70
2022/09/30 13:00:44;;;;;;;;;;;;;;;21.02;20.31;95008.81;5034752;28;20492;-70
2022/09/30 13:03:14;;;;;;;;;;;;;;;23.78;18.75;95027.25;5036204;28;20016;-69
2022/09/30 13:05:39;;;;;;;;;;;;;;;25.03;16.25;95017.53;5055068;28;20053;-69